Time;durP1;ratioP1;P1;durP2;ratioP2;P2;SDS_P1;SDS_P2;PMS_P1;PMS_P2;Temp;Humidity;BMP_temperature;BMP_pressure;BME280_temperature;BME280_humidity;BME280_pressure;Samples;Min_cycle;Max_cycle;Signal;HPM_P1;HPM_P2
2022/09/05 00:02:00;;;;;;;8.05;4.10;;;17.80;99.90;;;;;;4991747;28;20502;-85
2022/09/05 00:05:01;;;;;;;7.20;4.20;;;17.30;99.90;;;;;;4972077;28;20043;-85
2022/09/05 00:08:17;;;;;;;8.50;4.15;;;17.50;99.90;;;;;;4908395;29;20580;-85
2022/09/05 00:11:02;;;;;;;6.75;4.30;;;18.30;99.90;;;;;;4949528;28;20140;-84
2022/09/05 00:13:30;;;;;;;;;;;17.20;99.90;;;;;;4986612;28;20042;-84
2022/09/05 00:16:05;;;;;;;7.65;5.05;;;17.80;99.90;;;;;;4987776;28;19926;-85
2022/09/05 00:19:06;;;;;;;6.53;4.80;;;17.40;99.90;;;;;;4979694;28;20074;-85
2022/09/05 00:21:35;;;;;;;8.70;5.20;;;18.50;99.90;;;;;;4953278;28;20060;-84
2022/09/05 00:24:27;;;;;;;9.73;5.65;;;17.40;99.90;;;;;;4986423;28;20524;-85
2022/09/05 00:27:08;;;;;;;7.55;5.20;;;17.60;99.90;;;;;;4981114;28;20048;-84
2022/09/05 00:29:51;;;;;;;8.50;5.65;;;17.40;99.90;;;;;;4998558;28;20038;-84
2022/09/05 00:32:55;;;;;;;9.05;5.07;;;17.20;99.90;;;;;;4981979;28;20046;-84
2022/09/05 00:35:47;;;;;;;8.45;5.82;;;17.30;99.90;;;;;;4985709;28;20521;-85
2022/09/05 00:38:19;;;;;;;8.63;5.63;;;17.50;99.90;;;;;;4981409;28;20077;-84
2022/09/05 00:41:00;;;;;;;8.77;5.55;;;17.50;99.90;;;;;;4992188;28;20049;-84
2022/09/05 00:43:32;;;;;;;8.43;5.50;;;17.40;99.90;;;;;;4986747;28;20080;-84
2022/09/05 00:46:00;;;;;;;8.05;5.60;;;17.60;99.90;;;;;;4982272;28;20064;-84
2022/09/05 00:48:59;;;;;;;9.50;5.57;;;17.60;99.90;;;;;;4994613;28;20506;-84
2022/09/05 00:51:27;;;;;;;8.88;5.50;;;17.30;99.90;;;;;;4972384;28;20048;-84
2022/09/05 00:54:14;;;;;;;7.10;5.25;;;17.80;99.90;;;;;;4987166;28;20049;-85
2022/09/05 00:57:10;;;;;;;10.05;5.75;;;17.20;99.90;;;;;;4988066;28;20042;-84
2022/09/05 00:59:58;;;;;;;10.20;5.38;;;17.40;99.90;;;;;;4986616;28;20473;-84
2022/09/05 01:02:51;;;;;;;8.75;5.28;;;17.10;99.90;;;;;;4999442;28;20045;-85
2022/09/05 01:05:32;;;;;;;7.45;5.63;;;17.40;99.90;;;;;;4970021;28;20041;-84
2022/09/05 01:08:15;;;;;;;7.72;5.55;;;18.20;99.90;;;;;;4980385;28;20057;-85
2022/09/05 01:11:09;;;;;;;9.35;5.57;;;17.40;99.90;;;;;;5011761;28;20034;-85
2022/09/05 01:13:50;;;;;;;8.63;6.05;;;17.90;99.90;;;;;;4980226;28;20045;-84
2022/09/05 01:16:33;;;;;;;10.43;6.50;;;17.10;99.90;;;;;;4986110;28;20065;-84
2022/09/05 01:19:28;;;;;;;8.85;6.13;;;17.20;99.90;;;;;;4980083;28;20065;-85
2022/09/05 01:22:13;;;;;;;8.38;5.68;;;17.10;99.90;;;;;;4971066;28;20042;-85
2022/09/05 01:25:00;;;;;;;8.43;5.53;;;17.80;99.90;;;;;;4968277;28;20042;-85
2022/09/05 01:28:02;;;;;;;8.90;5.55;;;17.00;99.90;;;;;;4971622;28;20409;-85
2022/09/05 01:30:51;;;;;;;12.40;5.70;;;17.00;99.90;;;;;;4965601;28;20062;-84
2022/09/05 01:33:30;;;;;;;8.00;5.18;;;17.30;99.90;;;;;;5001982;28;20512;-85
2022/09/05 01:36:14;;;;;;;8.88;5.63;;;16.90;99.90;;;;;;4983527;28;20053;-85
2022/09/05 01:38:50;;;;;;;8.73;6.30;;;16.90;99.90;;;;;;4986951;28;20068;-85
2022/09/05 01:41:16;;;;;;;7.00;5.70;;;18.40;99.90;;;;;;5002175;28;20041;-85
2022/09/05 01:44:10;;;;;;;9.50;5.97;;;17.00;99.90;;;;;;4980694;28;20049;-83
2022/09/05 01:46:40;;;;;;;8.33;6.90;;;16.70;99.90;;;;;;4996564;28;20083;-84
2022/09/05 01:49:11;;;;;;;7.55;5.90;;;16.90;99.90;;;;;;4984395;28;20300;-86
2022/09/05 01:52:13;;;;;;;8.20;6.00;;;16.20;99.90;;;;;;4990528;28;20468;-85
2022/09/05 01:54:48;;;;;;;7.55;6.38;;;16.50;99.90;;;;;;4965821;28;20057;-85
2022/09/05 01:57:34;;;;;;;7.60;5.72;;;17.00;99.90;;;;;;4984255;28;20106;-84
2022/09/05 02:00:12;;;;;;;9.88;6.32;;;16.60;99.90;;;;;;4974962;28;20089;-85
2022/09/05 02:02:59;;;;;;;9.00;6.45;;;17.00;99.90;;;;;;4980870;28;20050;-85
2022/09/05 02:05:35;;;;;;;9.07;6.38;;;17.10;99.90;;;;;;4973129;28;20073;-84
2022/09/05 02:08:35;;;;;;;8.95;6.75;;;16.50;99.90;;;;;;4965830;28;20372;-85
2022/09/05 02:11:10;;;;;;;9.27;6.68;;;16.30;99.90;;;;;;4990767;28;20052;-84
2022/09/05 02:13:36;;;;;;;9.00;6.93;;;17.90;99.90;;;;;;5001546;28;20049;-85
2022/09/05 02:16:21;;;;;;;9.05;6.82;;;15.80;99.90;;;;;;4989566;28;20042;-85
2022/09/05 02:19:09;;;;;;;10.30;7.05;;;16.50;99.90;;;;;;4972527;28;20544;-85
2022/09/05 02:21:43;;;;;;;10.55;7.20;;;16.00;99.90;;;;;;4965413;28;20046;-86
2022/09/05 02:24:31;;;;;;;9.53;7.03;;;16.20;99.90;;;;;;4980026;28;20045;-84
2022/09/05 02:27:21;;;;;;;12.60;7.65;;;16.30;99.90;;;;;;4977606;28;20066;-84
2022/09/05 02:30:10;;;;;;;10.13;7.30;;;16.20;99.90;;;;;;4967954;28;20085;-84
2022/09/05 02:32:36;;;;;;;10.30;7.70;;;;;;;;;;4976648;28;20100;-84
2022/09/05 02:35:10;;;;;;;8.55;7.03;;;16.20;99.90;;;;;;4978796;28;20049;-84
2022/09/05 02:38:03;;;;;;;10.70;8.32;;;16.10;99.90;;;;;;4976865;28;20863;-85
2022/09/05 02:40:35;;;;;;;8.82;7.25;;;16.10;99.90;;;;;;4986237;28;20042;-85
2022/09/05 02:43:21;;;;;;;9.90;7.53;;;15.70;99.90;;;;;;4972466;28;20050;-85
2022/09/05 02:45:56;;;;;;;9.60;7.90;;;15.80;99.90;;;;;;4986168;28;20133;-85
2022/09/05 02:48:36;;;;;;;13.00;7.93;;;15.70;99.90;;;;;;4969053;28;20066;-84
2022/09/05 02:51:08;;;;;;;11.05;7.38;;;;;;;;;;4994889;28;20053;-85
2022/09/05 02:53:38;;;;;;;9.25;8.07;;;16.30;99.90;;;;;;4977190;28;20038;-85
2022/09/05 02:56:19;;;;;;;9.55;7.68;;;15.20;99.90;;;;;;4963369;28;20053;-84
2022/09/05 02:58:53;;;;;;;11.68;8.77;;;15.40;99.90;;;;;;4989931;28;20870;-85
2022/09/05 03:01:38;;;;;;;10.13;8.00;;;15.30;99.90;;;;;;4976081;28;20167;-84
2022/09/05 03:04:35;;;;;;;9.00;7.40;;;15.90;99.90;;;;;;4998291;28;20042;-85
2022/09/05 03:07:24;;;;;;;10.75;8.23;;;15.40;99.90;;;;;;4968615;28;20041;-85
2022/09/05 03:10:10;;;;;;;9.65;7.97;;;15.50;99.90;;;;;;4968929;28;20471;-84
2022/09/05 03:12:51;;;;;;;9.48;8.20;;;;;;;;;;4987396;28;20049;-85
2022/09/05 03:15:41;;;;;;;10.80;8.23;;;15.40;99.90;;;;;;4967186;28;20053;-85
2022/09/05 03:18:40;;;;;;;10.25;8.02;;;15.40;99.90;;;;;;4981536;28;20038;-85
2022/09/05 03:21:25;;;;;;;11.10;8.57;;;15.10;1.00;;;;;;4972273;28;20074;-84
2022/09/05 03:24:21;;;;;;;10.07;8.02;;;15.20;99.90;;;;;;4967781;28;20046;-85
2022/09/05 03:26:56;;;;;;;9.77;8.25;;;;;;;;;;4998070;28;20129;-84
2022/09/05 03:29:44;;;;;;;11.35;8.00;;;14.60;99.90;;;;;;4974713;28;20049;-84
2022/09/05 03:32:54;;;;;;;11.82;9.65;;;14.60;1.00;;;;;;4975781;28;20267;-84
2022/09/05 03:36:12;;;;;;;11.35;8.68;;;15.70;1.00;;;;;;4959397;28;20049;-84
2022/09/05 03:38:57;;;;;;;10.30;9.00;;;;;;;;;;4980697;28;20042;-84
2022/09/05 03:41:48;;;;;;;11.63;8.48;;;15.80;1.00;;;;;;4961243;28;20493;-84
2022/09/05 03:44:22;;;;;;;11.73;9.18;;;14.90;1.00;;;;;;4980374;28;20046;-84
2022/09/05 03:47:21;;;;;;;11.52;9.45;;;14.80;1.00;;;;;;4983068;28;20603;-84
2022/09/05 03:49:58;;;;;;;12.20;9.32;;;;;;;;;;4991114;28;20057;-84
2022/09/05 03:52:54;;;;;;;10.73;9.13;;;15.10;1.00;;;;;;4978780;28;20045;-85
2022/09/05 03:55:28;;;;;;;13.80;10.45;;;15.00;1.00;;;;;;4963235;28;20074;-84
2022/09/05 03:58:12;;;;;;;;;;;14.70;1.00;;;;;;4994335;28;20431;-84
2022/09/05 04:00:42;;;;;;;11.98;10.65;;;;;;;;;;4971376;28;19933;-84
2022/09/05 04:03:24;;;;;;;11.93;10.25;;;;;;;;;;5055966;22;20122;-65
2022/09/05 04:06:27;;;;;;;13.07;10.07;;;15.30;1.00;;;;;;5044792;28;20359;-65
2022/09/05 04:08:53;;;;;;;15.35;10.82;;;15.20;1.00;;;;;;5010751;28;20041;-65
2022/09/05 04:11:22;;;;;;;12.68;10.60;;;;;;;;;;5020795;28;20034;-65
2022/09/05 04:14:08;;;;;;;12.07;10.73;;;14.90;1.00;;;;;;5029583;28;20057;-65
2022/09/05 04:16:53;;;;;;;11.45;10.23;;;14.40;1.00;;;;;;5029864;28;20034;-65
2022/09/05 04:19:42;;;;;;;12.77;10.40;;;14.30;1.00;;;;;;5024735;28;20119;-65
2022/09/05 04:22:11;;;;;;;11.65;10.38;;;;;;;;;;5026366;28;20037;-65
2022/09/05 04:24:58;;;;;;;11.80;10.10;;;;;;;;;;5026452;28;20041;-65
2022/09/05 04:27:29;;;;;;;11.80;10.50;;;;;;;;;;5012937;28;20490;-65
2022/09/05 04:30:03;;;;;;;11.63;9.70;;;;;;;;;;5014246;28;20166;-65
2022/09/05 04:32:29;;;;;;;14.43;9.90;;;;;;;;;;5023909;28;20038;-65
2022/09/05 04:34:55;;;;;;;11.85;10.40;;;;;;;;;;5023560;28;20037;-65
2022/09/05 04:37:50;;;;;;;11.70;10.50;;;14.90;1.00;;;;;;5026841;28;20529;-65
2022/09/05 04:40:37;;;;;;;11.82;9.57;;;;;;;;;;5009624;28;20411;-65
2022/09/05 04:43:05;;;;;;;11.07;9.77;;;;;;;;;;5020739;28;20076;-65
2022/09/05 04:45:36;;;;;;;12.02;9.70;;;15.10;1.00;;;;;;5023070;28;20558;-65
2022/09/05 04:48:05;;;;;;;16.90;10.25;;;;;;;;;;5017724;28;20729;-65
2022/09/05 04:50:31;;;;;;;13.93;10.27;;;;;;;;;;5008335;28;20116;-65
2022/09/05 04:52:57;;;;;;;12.60;10.80;;;;;;;;;;5019687;28;20228;-65
2022/09/05 04:55:25;;;;;;;12.80;9.95;;;;;;;;;;5006110;28;20064;-65
2022/09/05 04:57:55;;;;;;;12.95;10.07;;;;;;;;;;5020699;28;21054;-65
2022/09/05 05:00:24;;;;;;;13.23;10.73;;;;;;;;;;5031555;28;20045;-65
2022/09/05 05:02:58;;;;;;;16.27;10.75;;;15.70;1.00;;;;;;5010948;28;20042;-65
2022/09/05 05:05:29;;;;;;;12.77;11.33;;;15.10;1.00;;;;;;5025873;28;20044;-65
2022/09/05 05:07:59;;;;;;;14.20;11.10;;;;;;;;;;5026154;28;20088;-65
2022/09/05 05:10:28;;;;;;;13.90;11.23;;;;;;;;;;5007409;28;20070;-65
2022/09/05 05:13:01;;;;;;;10.93;9.73;;;;;;;;;;5016906;28;20037;-66
2022/09/05 05:15:28;;;;;;;13.35;10.48;;;;;;;;;;5023291;28;20045;-65
2022/09/05 05:18:17;;;;;;;12.98;10.48;;;;;;;;;;5025364;28;20033;-65
2022/09/05 05:21:07;;;;;;;12.93;10.30;;;15.10;1.00;;;;;;5020348;28;20128;-65
2022/09/05 05:23:37;;;;;;;12.27;10.38;;;15.00;1.00;;;;;;5031775;28;20104;-65
2022/09/05 05:26:06;;;;;;;11.63;9.70;;;;;;;;;;5013893;28;20116;-65
2022/09/05 05:28:54;;;;;;;12.30;10.20;;;;;;;;;;5031315;28;20069;-66
2022/09/05 05:31:26;;;;;;;11.88;10.40;;;;;;;;;;5009275;28;20083;-65
2022/09/05 05:33:54;;;;;;;13.20;10.40;;;15.10;1.00;;;;;;5014487;28;20075;-65
2022/09/05 05:36:24;;;;;;;10.63;9.25;;;;;;;;;;5027835;28;20025;-65
2022/09/05 05:39:18;;;;;;;11.45;10.23;;;15.00;1.00;;;;;;5031663;28;20479;-65
2022/09/05 05:41:52;;;;;;;11.55;10.25;;;;;;;;;;5025758;28;20060;-65
2022/09/05 05:44:28;;;;;;;12.70;10.50;;;15.20;1.00;;;;;;5031943;28;20037;-65
2022/09/05 05:47:15;;;;;;;12.75;10.95;;;15.20;1.00;;;;;;5031238;28;20036;-65
2022/09/05 05:49:50;;;;;;;12.32;10.75;;;;;;;;;;5031898;28;20460;-65
2022/09/05 05:52:24;;;;;;;15.85;11.70;;;15.40;1.00;;;;;;5032245;28;20087;-65
2022/09/05 05:54:58;;;;;;;12.00;10.73;;;;;;;;;;5031860;28;20080;-65
2022/09/05 05:57:43;;;;;;;14.77;11.43;;;;;;;;;;5030664;28;20037;-65
2022/09/05 06:00:08;;;;;;;;;;;16.10;1.00;;;;;;5025822;28;20116;-65
2022/09/05 06:02:34;;;;;;;12.73;10.48;;;;;;;;;;5031799;28;20009;-65
2022/09/05 06:05:00;;;;;;;13.38;10.90;;;;;;;;;;5013312;28;20392;-66
2022/09/05 06:07:33;;;;;;;11.93;10.23;;;;;;;;;;5031688;28;20080;-66
2022/09/05 06:10:20;;;;;;;13.82;10.48;;;16.10;1.00;;;;;;5031375;28;20065;-65
2022/09/05 06:12:49;;;;;;;12.48;11.18;;;;;;;;;;5031440;28;20045;-66
2022/09/05 06:15:35;;;;;;;14.20;10.63;;;;;;;;;;5026577;28;20041;-65
2022/09/05 06:18:32;;;;;;;12.05;10.73;;;16.30;1.00;;;;;;5013382;28;20058;-65
2022/09/05 06:21:12;;;;;;;11.82;10.43;;;16.60;1.00;;;;;;5031896;28;20083;-65
2022/09/05 06:23:50;;;;;;;12.77;11.30;;;;;;;;;;5031243;28;20041;-65
2022/09/05 06:26:31;;;;;;;14.52;10.57;;;16.70;1.00;;;;;;5031048;28;20495;-65
2022/09/05 06:29:22;;;;;;;12.90;10.43;;;16.60;1.00;;;;;;5019547;28;20040;-65
2022/09/05 06:32:09;;;;;;;13.32;10.95;;;16.90;1.00;;;;;;5030548;28;20041;-66
2022/09/05 06:34:47;;;;;;;12.45;10.70;;;;;;;;;;5013755;28;20046;-65
2022/09/05 06:37:26;;;;;;;11.48;10.25;;;17.50;1.00;;;;;;5028456;28;20517;-65
2022/09/05 06:40:07;;;;;;;11.60;10.40;;;17.20;1.00;;;;;;5031107;28;20559;-66
2022/09/05 06:42:44;;;;;;;14.55;10.63;;;;;;;;;;5028062;28;20049;-66
2022/09/05 06:45:21;;;;;;;12.63;10.10;;;;;;;;;;5030903;28;20403;-66
2022/09/05 06:47:50;;;;;;;12.10;10.02;;;;;;;;;;5029442;28;20500;-65
2022/09/05 06:50:18;;;;;;;11.68;10.43;;;;;;;;;;5031053;28;20033;-65
2022/09/05 06:53:23;;;;;;;11.73;9.75;;;18.00;1.00;;;;;;5008178;28;20076;-66
2022/09/05 06:55:59;;;;;;;11.53;9.87;;;;;;;;;;4999234;28;20081;-65
2022/09/05 06:58:40;;;;;;;12.73;10.98;;;;;;;;;;5029679;28;20045;-65
2022/09/05 07:01:08;;;;;;;10.65;9.48;;;17.50;1.00;;;;;;5030749;28;20045;-66
2022/09/05 07:03:36;;;;;;;11.40;10.20;;;17.40;1.00;;;;;;5023873;28;20117;-66
2022/09/05 07:06:17;;;;;;;12.45;10.00;;;17.80;1.00;;;;;;5021932;28;20037;-65
2022/09/05 07:09:01;;;;;;;12.15;10.48;;;18.00;99.90;;;;;;5028317;28;20452;-64
2022/09/05 07:11:54;;;;;;;13.40;9.85;;;18.80;99.90;;;;;;5027124;28;20510;-65
2022/09/05 07:14:30;;;;;;;13.18;9.88;;;18.20;99.90;;;;;;5023575;28;20113;-65
2022/09/05 07:17:04;;;;;;;13.80;10.80;;;;;;;;;;5029554;28;20498;-65
2022/09/05 07:19:50;;;;;;;12.35;10.13;;;18.10;99.90;;;;;;5030553;28;20060;-65
2022/09/05 07:22:19;;;;;;;11.05;9.70;;;;;;;;;;5008050;28;20533;-65
2022/09/05 07:24:48;;;;;;;11.02;9.48;;;19.20;99.90;;;;;;5029385;28;20041;-65
2022/09/05 07:27:31;;;;;;;12.10;9.70;;;18.20;99.90;;;;;;5030204;28;20038;-65
2022/09/05 07:29:58;;;;;;;11.85;10.43;;;19.10;99.90;;;;;;5030187;28;20029;-65
2022/09/05 07:32:25;;;;;;;12.05;9.93;;;19.70;99.90;;;;;;5030191;28;20037;-65
2022/09/05 07:34:52;;;;;;;11.10;9.27;;;18.60;99.90;;;;;;5030316;28;20039;-65
2022/09/05 07:37:50;;;;;;;10.77;9.40;;;18.80;99.90;;;;;;5028872;28;20043;-65
2022/09/05 07:40:21;;;;;;;11.32;8.75;;;18.70;99.90;;;;;;5024122;28;20057;-65
2022/09/05 07:42:52;;;;;;;12.10;10.20;;;;;;;;;;5030156;28;20494;-65
2022/09/05 07:45:28;;;;;;;11.82;9.43;;;19.90;99.90;;;;;;5029977;28;20049;-66
2022/09/05 07:48:16;;;;;;;12.82;10.40;;;19.80;99.90;;;;;;5029569;28;20057;-65
2022/09/05 07:50:54;;;;;;;12.32;9.55;;;19.90;99.90;;;;;;5023737;28;20072;-65
2022/09/05 07:53:21;;;;;;;10.70;8.98;;;;;;;;;;5023132;28;20044;-64
2022/09/05 07:55:49;;;;;;;12.52;9.93;;;;;;;;;;5028764;28;20038;-65
2022/09/05 07:58:18;;;;;;;14.60;9.43;;;20.10;99.90;;;;;;5029484;28;20049;-65
2022/09/05 08:00:51;;;;;;;10.38;9.35;;;20.50;99.90;;;;;;5012572;28;20088;-64
2022/09/05 08:03:27;;;;;;;10.82;9.23;;;20.30;99.90;;;;;;5029946;28;20121;-65
2022/09/05 08:05:56;;;;;;;11.18;9.60;;;20.50;99.90;;;;;;4997353;28;20064;-65
2022/09/05 08:08:27;;;;;;;10.85;9.60;;;21.30;99.90;;;;;;5020863;28;20041;-65
2022/09/05 08:11:10;;;;;;;10.63;8.40;;;;;;;;;;5022362;28;20033;-66
2022/09/05 08:13:38;;;;;;;12.05;8.70;;;20.80;99.90;;;;;;5027620;28;20561;-65
2022/09/05 08:16:04;;;;;;;11.60;9.07;;;;;;;;;;5025269;28;20132;-65
2022/09/05 08:18:44;;;;;;;11.35;9.00;;;20.80;99.90;;;;;;5027849;28;20387;-65
2022/09/05 08:21:24;;;;;;;10.75;9.40;;;21.00;99.90;;;;;;5030182;28;20120;-65
2022/09/05 08:23:56;;;;;;;12.57;8.60;;;21.00;99.90;;;;;;5029468;28;20553;-65
2022/09/05 08:26:47;;;;;;;10.02;8.73;;;21.10;99.90;;;;;;5029255;28;20107;-65
2022/09/05 08:29:30;;;;;;;10.95;8.15;;;21.20;99.90;;;;;;5024013;28;20108;-65
2022/09/05 08:32:10;;;;;;;11.63;9.45;;;21.70;99.90;;;;;;5011691;28;20045;-65
2022/09/05 08:34:39;;;;;;;11.18;9.38;;;22.10;99.90;;;;;;5028096;28;20454;-65
2022/09/05 08:37:07;;;;;;;14.48;9.70;;;22.40;99.90;;;;;;5028932;28;20075;-65
2022/09/05 08:39:33;;;;;;;9.85;8.45;;;21.30;99.90;;;;;;5028912;28;20037;-65
2022/09/05 08:42:16;;;;;;;14.35;9.73;;;21.80;99.90;;;;;;5029619;28;20030;-66
2022/09/05 08:44:45;;;;;;;10.32;8.18;;;22.20;99.90;;;;;;5029729;28;20132;-65
2022/09/05 08:47:35;;;;;;;11.57;8.02;;;22.30;99.90;;;;;;5025635;28;20033;-65
2022/09/05 08:50:32;;;;;;;10.68;8.15;;;21.60;99.90;;;;;;5027756;28;20459;-66
2022/09/05 08:53:26;;;;;;;10.60;7.82;;;22.20;99.90;;;;;;5033394;28;20048;-65
2022/09/05 08:56:09;;;;;;;9.95;7.82;;;22.10;99.90;;;;;;5032819;28;20048;-65
2022/09/05 08:58:52;;;;;;;10.77;8.48;;;22.90;99.90;;;;;;5031257;28;20563;-65
2022/09/05 09:01:32;;;;;;;11.70;7.70;;;22.70;99.90;;;;;;5010703;28;20099;-66
2022/09/05 09:04:15;;;;;;;11.77;7.72;;;22.90;99.90;;;;;;5007780;28;20192;-65
2022/09/05 09:07:06;;;;;;;9.23;7.57;;;23.00;99.90;;;;;;5032532;28;20053;-65
2022/09/05 09:09:57;;;;;;;10.13;7.20;;;23.20;99.90;;;;;;5032872;28;20116;-65
2022/09/05 09:12:37;;;;;;;9.40;7.38;;;23.70;99.90;;;;;;5028743;28;20088;-65
2022/09/05 09:15:37;;;;;;;9.77;7.40;;;23.70;99.90;;;;;;5032475;28;20124;-65
2022/09/05 09:18:14;;;;;;;9.18;7.70;;;24.30;99.90;;;;;;5029825;28;20053;-65
2022/09/05 09:21:11;;;;;;;8.52;6.47;;;23.80;99.90;;;;;;5032213;28;20049;-65
2022/09/05 09:24:06;;;;;;;9.07;6.22;;;24.50;99.90;;;;;;5031956;28;20033;-66
2022/09/05 09:26:50;;;;;;;8.75;6.93;;;23.60;99.90;;;;;;5032457;28;20045;-65
2022/09/05 09:29:17;;;;;;;9.48;6.80;;;25.40;99.90;;;;;;5031513;28;20029;-65
2022/09/05 09:32:13;;;;;;;10.20;7.32;;;25.10;99.90;;;;;;5032311;28;20050;-65
2022/09/05 09:35:14;;;;;;;8.95;6.45;;;24.10;99.90;;;;;;5030375;28;20073;-66
2022/09/05 09:38:22;;;;;;;9.82;7.07;;;24.10;99.90;;;;;;5031310;28;20047;-66
2022/09/05 09:41:16;;;;;;;8.93;6.47;;;24.20;99.90;;;;;;5018558;28;20059;-65
2022/09/05 09:44:04;;;;;;;9.52;7.10;;;25.20;99.90;;;;;;5029970;28;20510;-65
2022/09/05 09:46:46;;;;;;;9.00;5.57;;;24.60;99.90;;;;;;5028701;28;20056;-65
2022/09/05 09:49:45;;;;;;;9.07;6.72;;;25.30;99.90;;;;;;5005851;28;20065;-65
2022/09/05 09:52:35;;;;;;;7.95;6.70;;;25.20;99.90;;;;;;4986941;28;20037;-65
2022/09/05 09:55:22;;;;;;;8.45;5.70;;;24.80;99.90;;;;;;5024567;28;20095;-66
2022/09/05 09:58:00;;;;;;;7.25;5.70;;;25.30;99.90;;;;;;5030984;28;20099;-65
2022/09/05 10:00:40;;;;;;;7.50;5.35;;;24.70;99.90;;;;;;5015997;28;20037;-65
2022/09/05 10:03:34;;;;;;;7.45;5.80;;;24.90;99.90;;;;;;5081870;22;20064;-84
2022/09/05 10:06:35;;;;;;;7.68;5.60;;;25.60;99.90;;;;;;5046183;28;20052;-84
2022/09/05 10:09:00;;;;;;;9.35;5.40;;;25.90;99.90;;;;;;4994139;28;20059;-84
2022/09/05 10:11:55;;;;;;;7.80;5.35;;;25.80;99.90;;;;;;5045083;28;20036;-86
2022/09/05 10:14:49;;;;;;;8.23;5.25;;;26.60;99.90;;;;;;5030975;28;20417;-86
2022/09/05 10:17:42;;;;;;;6.88;4.57;;;26.20;99.90;;;;;;5026524;28;20060;-85
2022/09/05 10:20:23;;;;;;;7.82;4.68;;;26.00;99.90;;;;;;5021271;28;20151;-86
2022/09/05 10:22:51;;;;;;;9.40;5.10;;;25.70;99.90;;;;;;5042333;28;20033;-86
2022/09/05 10:25:51;;;;;;;6.90;5.07;;;26.20;99.90;;;;;;5031549;28;20045;-85
2022/09/05 10:28:36;;;;;;;8.23;4.82;;;25.70;99.90;;;;;;5013969;28;20082;-86
2022/09/05 10:31:21;;;;;;;7.63;4.65;;;25.70;99.90;;;;;;5031684;28;20045;-86
2022/09/05 10:34:18;;;;;;;8.00;3.90;;;26.70;99.90;;;;;;5014111;28;20049;-86
2022/09/05 10:37:01;;;;;;;6.00;4.07;;;26.30;99.90;;;;;;5024699;28;20109;-85
2022/09/05 10:39:31;;;;;;;6.32;3.35;;;26.60;99.90;;;;;;5031315;28;20049;-86
2022/09/05 10:42:19;;;;;;;8.25;4.15;;;26.70;99.90;;;;;;5045729;28;20041;-86
2022/09/05 10:44:51;;;;;;;7.55;4.00;;;26.80;99.90;;;;;;5031713;28;20471;-86
2022/09/05 10:47:24;;;;;;;6.50;3.60;;;27.10;99.90;;;;;;5016753;28;20102;-82
2022/09/05 10:50:08;;;;;;;5.97;3.72;;;27.10;99.90;;;;;;5044068;28;20041;-85
2022/09/05 10:52:49;;;;;;;7.10;3.95;;;27.20;99.90;;;;;;5028581;28;20134;-84
2022/09/05 10:55:27;;;;;;;7.75;3.95;;;27.10;99.90;;;;;;5031772;28;20053;-84
2022/09/05 10:57:58;;;;;;;7.93;4.20;;;27.40;99.90;;;;;;5039735;28;20053;-84
2022/09/05 11:01:04;;;;;;;6.95;3.75;;;26.40;99.90;;;;;;4999435;28;20797;-83
2022/09/05 11:03:54;;;;;;;5.65;3.47;;;27.40;99.90;;;;;;5012650;28;20037;-84
2022/09/05 11:06:51;;;;;;;5.53;3.50;;;27.60;99.90;;;;;;5007115;28;20038;-84
2022/09/05 11:09:35;;;;;;;7.22;3.60;;;27.50;99.90;;;;;;5002097;28;20033;-83
2022/09/05 11:12:31;;;;;;;7.47;3.10;;;27.40;99.90;;;;;;5018310;28;20037;-83
2022/09/05 11:15:19;;;;;;;5.00;2.70;;;26.40;99.90;;;;;;5013706;28;20037;-84
2022/09/05 11:17:57;;;;;;;5.45;2.47;;;28.40;99.90;;;;;;5004594;28;20386;-84
2022/09/05 11:20:46;;;;;;;4.70;2.35;;;28.90;99.90;;;;;;5025505;28;20539;-84
2022/09/05 11:23:31;;;;;;;6.78;2.80;;;28.90;99.90;;;;;;5001621;28;20044;-83
2022/09/05 11:26:02;;;;;;;5.63;2.35;;;28.30;99.90;;;;;;5016631;28;20037;-84
2022/09/05 11:28:56;;;;;;;6.53;2.85;;;28.60;99.90;;;;;;5039997;28;20056;-84
2022/09/05 11:31:27;;;;;;;6.85;2.95;;;29.30;99.90;;;;;;5020216;28;20060;-84
2022/09/05 11:34:14;;;;;;;5.45;2.90;;;29.10;99.90;;;;;;5022255;28;20060;-84
2022/09/05 11:36:45;;;;;;;5.75;2.58;;;28.80;99.90;;;;;;5015799;28;20068;-84
2022/09/05 11:39:34;;;;;;;5.20;2.83;;;29.00;99.90;;;;;;5025929;28;20120;-82
2022/09/05 11:42:28;;;;;;;5.13;2.80;;;30.00;99.90;;;;;;5008665;28;20048;-84
2022/09/05 11:45:16;;;;;;;5.87;3.07;;;29.50;99.90;;;;;;5028737;28;20045;-84
2022/09/05 11:47:55;;;;;;;6.43;2.70;;;29.40;99.90;;;;;;5025819;28;20280;-82
2022/09/05 11:50:39;;;;;;;5.65;2.80;;;30.90;99.90;;;;;;5008260;28;20070;-85
2022/09/05 11:53:23;;;;;;;7.13;2.95;;;30.20;99.90;;;;;;5021533;28;20037;-84
2022/09/05 11:56:02;;;;;;;;;;;31.30;99.90;;;;;;5024077;28;20050;-83
2022/09/05 11:58:33;;;;;;;6.43;2.75;;;31.30;99.90;;;;;;5024991;28;19925;-84
2022/09/05 12:01:27;;;;;;;5.22;2.50;;;31.10;99.90;;;;;;5004898;28;20052;-85
2022/09/05 12:04:15;;;;;;;4.80;2.53;;;31.50;99.90;;;;;;5030652;28;20041;-84
2022/09/05 12:07:30;;;;;;;5.68;2.67;;;32.00;99.90;;;;;;5005342;28;20048;-85
2022/09/05 12:10:06;;;;;;;5.07;2.40;;;33.60;99.90;;;;;;5007597;28;20580;-84
2022/09/05 12:13:18;;;;;;;7.20;2.45;;;35.30;99.90;;;;;;5004295;28;20451;-85
2022/09/05 12:15:45;;;;;;;5.18;2.22;;;36.20;99.90;;;;;;4940182;28;20114;-84
2022/09/05 12:18:29;;;;;;;6.88;2.47;;;36.90;99.90;;;;;;4963934;28;20043;-85
2022/09/05 12:21:14;;;;;;;6.00;2.70;;;37.40;99.90;;;;;;5006910;28;20537;-85
2022/09/05 12:24:00;;;;;;;5.35;2.50;;;37.60;99.90;;;;;;5040466;28;20045;-85
2022/09/05 12:26:39;;;;;;;5.25;2.45;;;37.20;99.90;;;;;;5047950;28;20049;-86
2022/09/05 12:29:25;;;;;;;4.88;2.40;;;37.20;99.90;;;;;;5012946;28;20045;-84
2022/09/05 12:31:58;;;;;;;5.30;2.33;;;37.80;99.90;;;;;;5009635;28;20045;-85
2022/09/05 12:34:50;;;;;;;5.68;2.40;;;37.80;99.90;;;;;;5031361;28;20115;-85
2022/09/05 12:37:22;;;;;;;6.40;2.38;;;39.60;99.90;;;;;;5024839;28;20455;-85
2022/09/05 12:40:11;;;;;;;4.60;2.10;;;41.00;99.90;;;;;;5025746;28;20237;-85
2022/09/05 12:42:52;;;;;;;4.68;2.40;;;41.00;99.90;;;;;;5027601;28;20390;-85
2022/09/05 12:45:20;;;;;;;6.85;2.33;;;39.80;99.90;;;;;;5004261;28;20103;-86
2022/09/05 12:48:08;;;;;;;5.68;2.50;;;40.00;99.90;;;;;;5012949;28;20041;-84
2022/09/05 12:50:41;;;;;;;4.70;2.45;;;39.20;99.90;;;;;;5037083;28;20320;-85
2022/09/05 12:53:17;;;;;;;5.85;2.10;;;40.00;99.90;;;;;;5031840;28;20074;-85
2022/09/05 12:55:51;;;;;;;5.05;2.28;;;40.10;99.90;;;;;;5031061;28;20049;-84
2022/09/05 12:58:39;;;;;;;4.80;2.10;;;41.10;99.90;;;;;;5031514;28;20037;-85
2022/09/05 13:01:16;;;;;;;4.70;2.10;;;41.90;99.90;;;;;;5031276;28;20037;-85
2022/09/05 13:04:17;;;;;;;5.20;1.90;;;40.40;99.90;;;;;;5028264;28;20371;-83
2022/09/05 13:06:55;;;;;;;4.40;2.05;;;41.30;99.90;;;;;;5032294;28;20037;-83
2022/09/05 13:09:29;;;;;;;4.65;1.92;;;41.30;99.90;;;;;;5014417;28;20419;-85
2022/09/05 13:12:07;;;;;;;6.60;2.25;;;42.30;99.90;;;;;;5023130;28;20037;-83
2022/09/05 13:14:58;;;;;;;4.53;2.03;;;42.50;99.90;;;;;;5011004;28;20056;-85
2022/09/05 13:17:37;;;;;;;4.57;1.90;;;41.70;99.90;;;;;;5013333;28;20041;-85
2022/09/05 13:20:14;;;;;;;5.15;2.20;;;41.90;99.90;;;;;;5007232;28;20053;-85
2022/09/05 13:22:42;;;;;;;5.38;1.95;;;41.50;99.90;;;;;;5031570;28;20044;-85
2022/09/05 13:25:15;;;;;;;4.75;2.13;;;39.30;99.90;;;;;;5008282;28;20052;-85
2022/09/05 13:27:45;;;;;;;;;;;40.00;99.90;;;;;;5012654;28;20099;-84
2022/09/05 13:30:13;;;;;;;5.53;1.98;;;39.00;99.90;;;;;;5019274;28;19921;-84
2022/09/05 13:32:49;;;;;;;4.57;2.15;;;39.30;99.90;;;;;;5030116;28;20045;-85
2022/09/05 13:35:35;;;;;;;5.20;1.70;;;39.60;99.90;;;;;;5025417;28;20059;-84
2022/09/05 13:38:23;;;;;;;6.93;2.00;;;39.50;99.90;;;;;;5007861;28;20055;-83
2022/09/05 13:40:56;;;;;;;5.22;1.90;;;40.60;99.90;;;;;;5041322;28;20260;-85
2022/09/05 13:43:37;;;;;;;5.88;1.90;;;40.00;99.90;;;;;;5030706;28;20382;-85
2022/09/05 13:46:23;;;;;;;4.20;1.70;;;40.40;99.90;;;;;;5024937;28;20048;-85
2022/09/05 13:49:19;;;;;;;4.63;1.70;;;42.20;99.90;;;;;;5009032;28;20064;-85
2022/09/05 13:52:19;;;;;;;5.97;1.60;;;42.70;99.90;;;;;;5026408;28;20591;-84
2022/09/05 13:55:04;;;;;;;4.32;1.80;;;44.00;99.90;;;;;;5028187;28;20037;-85
2022/09/05 13:57:39;;;;;;;5.55;1.73;;;42.30;99.90;;;;;;5006652;28;20042;-85
2022/09/05 14:03:01;;;;;;;5.95;1.90;;;42.20;99.90;;;;;;5026187;28;20198;-85
2022/09/05 14:05:57;;;;;;;4.05;1.80;;;40.80;99.90;;;;;;5022656;28;20032;-85
2022/09/05 14:08:32;;;;;;;5.28;1.70;;;44.50;99.90;;;;;;5028890;28;20105;-85
2022/09/05 14:11:18;;;;;;;4.32;1.70;;;45.60;99.90;;;;;;5026717;28;20367;-85
2022/09/05 14:14:07;;;;;;;4.10;1.60;;;45.80;99.90;;;;;;5029671;28;20352;-84
2022/09/05 14:16:40;;;;;;;5.13;1.73;;;46.30;99.90;;;;;;5025966;28;20107;-85
2022/09/05 14:21:51;;;;;;;4.88;1.63;;;46.70;99.90;;;;;;5023294;28;20049;-85